createdAt,value
2022-11-01T00:00:02.594Z,81
2022-11-01T00:20:02.467Z,82
2022-11-01T00:40:02.640Z,82
2022-11-01T01:00:03.007Z,82
2022-11-01T01:20:02.905Z,82
2022-11-01T01:40:02.260Z,82
2022-11-01T02:00:02.667Z,82
2022-11-01T02:20:02.334Z,82
2022-11-01T02:40:02.626Z,82
2022-11-01T03:00:04.263Z,82
2022-11-01T03:20:02.896Z,82
2022-11-01T03:40:02.252Z,82
2022-11-01T04:00:02.631Z,81
2022-11-01T04:20:03.395Z,81
2022-11-01T04:40:02.841Z,81
2022-11-01T05:00:03.337Z,80
2022-11-01T05:20:02.752Z,80
2022-11-01T05:40:03.153Z,80
2022-11-01T06:00:02.656Z,80
2022-11-01T06:20:02.380Z,80
2022-11-01T06:40:02.775Z,81
2022-11-01T07:00:03.145Z,82
2022-11-01T07:20:02.561Z,82
2022-11-01T07:40:03.249Z,82
2022-11-01T08:00:02.686Z,83
2022-11-01T08:20:02.387Z,82
2022-11-01T08:40:02.997Z,82
2022-11-01T09:00:02.523Z,81
2022-11-01T09:20:02.370Z,80
2022-11-01T09:40:02.730Z,79
2022-11-01T10:00:03.219Z,77
2022-11-01T10:20:03.141Z,76
2022-11-01T10:40:09.443Z,76
2022-11-01T11:00:03.093Z,75
2022-11-01T11:20:02.844Z,75
2022-11-01T11:40:03.293Z,73
2022-11-01T12:00:02.766Z,72
2022-11-01T12:20:02.873Z,72
2022-11-01T12:40:02.455Z,72
2022-11-01T13:00:02.835Z,73
2022-11-01T13:20:02.782Z,74
2022-11-01T13:40:03.191Z,75
2022-11-01T14:00:03.680Z,75
2022-11-01T14:20:02.373Z,75
2022-11-01T14:40:02.886Z,75
2022-11-01T15:00:02.403Z,75
2022-11-01T15:20:02.856Z,76
2022-11-01T15:40:03.241Z,76
2022-11-01T16:00:02.652Z,76
2022-11-01T16:20:02.367Z,77
2022-11-01T16:40:03.068Z,76
2022-11-01T17:00:02.809Z,76
2022-11-01T17:20:02.733Z,76
2022-11-01T17:40:03.137Z,76
2022-11-01T18:00:02.662Z,76
2022-11-01T18:20:03.626Z,78
2022-11-01T18:40:03.087Z,78
2022-11-01T19:00:03.688Z,78
2022-11-01T19:20:04.640Z,78
2022-11-01T19:40:03.824Z,77
2022-11-01T20:00:03.633Z,77
2022-11-01T20:20:03.981Z,77
2022-11-01T20:40:03.757Z,78
2022-11-01T21:00:03.239Z,78
2022-11-01T21:20:08.989Z,77
2022-11-01T21:40:13.603Z,76
2022-11-01T22:00:02.986Z,76
2022-11-01T22:20:02.602Z,76
2022-11-01T22:40:03.148Z,76
2022-11-01T23:00:02.625Z,76
2022-11-01T23:20:03.175Z,76
2022-11-01T23:40:02.706Z,76
